createdAt,value
2023-03-06T00:00:57.841Z,22.10
2023-03-06T00:03:27.949Z,21.60
2023-03-06T00:05:57.959Z,20.00
2023-03-06T00:08:27.780Z,22.20
2023-03-06T00:10:56.651Z,20.90
2023-03-06T00:13:26.887Z,23.50
2023-03-06T00:15:54.425Z,24.60
2023-03-06T00:18:21.890Z,23.60
2023-03-06T00:20:49.257Z,25.40
2023-03-06T00:23:16.867Z,23.80
2023-03-06T00:25:45.404Z,25.30
2023-03-06T00:28:14.916Z,24.10
2023-03-06T00:30:42.867Z,25.10
2023-03-06T00:33:10.851Z,24.40
2023-03-06T00:35:42.018Z,22.70
2023-03-06T00:38:11.852Z,23.10
2023-03-06T00:40:39.724Z,22.60
2023-03-06T00:43:07.096Z,25.70
2023-03-06T00:45:34.535Z,21.80
2023-03-06T00:48:02.347Z,21.60
2023-03-06T00:50:29.850Z,22.60
2023-03-06T00:52:57.254Z,21.40
2023-03-06T00:55:24.773Z,23.10
2023-03-06T00:57:52.118Z,23.30
2023-03-06T01:00:19.834Z,20.90
2023-03-06T01:02:47.174Z,21.80
2023-03-06T01:05:15.121Z,20.70
2023-03-06T01:07:42.669Z,19.80
2023-03-06T01:10:11.352Z,21.50
2023-03-06T01:12:38.702Z,25.70
2023-03-06T01:15:07.487Z,23.00
2023-03-06T01:17:34.924Z,23.80
2023-03-06T01:20:02.351Z,22.10
2023-03-06T01:22:30.164Z,23.70
2023-03-06T01:24:57.612Z,22.20
2023-03-06T01:27:24.956Z,21.80
2023-03-06T01:29:52.501Z,22.70
2023-03-06T01:32:21.462Z,24.30
2023-03-06T01:34:49.016Z,25.60
2023-03-06T01:37:16.679Z,26.60
2023-03-06T01:39:44.088Z,24.30
2023-03-06T01:42:11.713Z,25.00
2023-03-06T01:45:01.770Z,25.50
2023-03-06T01:47:29.205Z,25.10
2023-03-06T01:49:58.468Z,26.10
2023-03-06T01:52:31.929Z,25.90
2023-03-06T01:55:11.729Z,26.70
2023-03-06T01:57:47.586Z,22.70
2023-03-06T02:00:19.466Z,22.20
2023-03-06T02:03:14.282Z,22.60
2023-03-06T02:05:43.982Z,23.80
2023-03-06T02:08:13.783Z,19.90
2023-03-06T02:11:36.782Z,21.60
2023-03-06T02:14:04.372Z,22.10
2023-03-06T02:16:33.905Z,20.70
2023-03-06T02:19:03.061Z,20.00
2023-03-06T02:21:36.533Z,21.10
2023-03-06T02:24:22.377Z,21.90
2023-03-06T02:26:50.600Z,20.20
2023-03-06T02:29:28.921Z,20.40
2023-03-06T02:31:56.769Z,19.20
2023-03-06T02:34:24.051Z,22.10
2023-03-06T02:37:02.075Z,20.20
2023-03-06T02:39:33.278Z,22.60
2023-03-06T02:42:00.676Z,21.10
2023-03-06T02:44:28.981Z,20.50
2023-03-06T02:46:56.323Z,23.40
2023-03-06T02:49:26.340Z,23.00
2023-03-06T02:51:53.874Z,21.80
2023-03-06T02:54:21.272Z,17.40
2023-03-06T02:56:48.695Z,24.30
2023-03-06T02:59:16.179Z,21.90
2023-03-06T03:01:43.658Z,22.40
2023-03-06T03:04:11.176Z,22.90
2023-03-06T03:06:38.628Z,21.10
2023-03-06T03:09:06.190Z,21.00
2023-03-06T03:11:33.639Z,21.10
2023-03-06T03:14:01.098Z,24.60
2023-03-06T03:16:28.582Z,22.90
2023-03-06T03:18:55.990Z,20.60
2023-03-06T03:21:23.447Z,20.50
2023-03-06T03:23:50.799Z,22.10
2023-03-06T03:26:21.320Z,23.50
2023-03-06T03:28:48.905Z,21.30
2023-03-06T03:31:16.419Z,23.10
2023-03-06T03:33:43.832Z,21.60
2023-03-06T03:36:11.385Z,21.10
2023-03-06T03:38:38.827Z,23.60
2023-03-06T03:41:06.371Z,19.60
2023-03-06T03:43:34.452Z,18.00
2023-03-06T03:46:01.989Z,23.20
2023-03-06T03:48:29.396Z,24.00
2023-03-06T03:51:10.419Z,23.20
2023-03-06T03:53:37.924Z,21.40
2023-03-06T03:56:06.274Z,23.10
2023-03-06T03:58:33.860Z,22.40
2023-03-06T04:01:01.395Z,21.10
2023-03-06T04:03:29.175Z,20.50
2023-03-06T04:05:58.086Z,25.70
2023-03-06T04:08:26.493Z,19.40
2023-03-06T04:10:54.924Z,25.40
2023-03-06T04:13:23.599Z,22.90
2023-03-06T04:15:53.975Z,20.80
2023-03-06T04:18:23.162Z,24.00
2023-03-06T04:20:51.095Z,21.60
2023-03-06T04:23:19.397Z,23.30
2023-03-06T04:25:47.210Z,23.20
2023-03-06T04:28:15.078Z,26.50
2023-03-06T04:30:43.198Z,25.90
2023-03-06T04:33:10.894Z,24.40
2023-03-06T04:35:38.954Z,22.40
2023-03-06T04:38:06.421Z,22.10
2023-03-06T04:40:37.398Z,23.90
2023-03-06T04:43:05.888Z,20.40
2023-03-06T04:45:34.502Z,24.30
2023-03-06T04:48:02.268Z,23.80
2023-03-06T04:50:32.634Z,26.60
2023-03-06T04:53:01.793Z,23.70
2023-03-06T04:55:29.510Z,24.20
2023-03-06T04:57:58.981Z,24.90
2023-03-06T05:00:31.741Z,22.90
2023-03-06T05:03:01.210Z,21.80
2023-03-06T05:05:29.206Z,23.60
2023-03-06T05:07:57.185Z,21.80
2023-03-06T05:10:24.683Z,21.50
2023-03-06T05:12:52.049Z,25.50
2023-03-06T05:15:19.610Z,23.20
2023-03-06T05:17:47.686Z,24.80
2023-03-06T05:20:16.807Z,21.00
2023-03-06T05:22:44.799Z,22.50
2023-03-06T05:25:12.754Z,23.60
2023-03-06T05:27:40.171Z,23.50
2023-03-06T05:30:11.749Z,21.50
2023-03-06T05:32:39.172Z,26.00
2023-03-06T05:35:07.450Z,26.10
2023-03-06T05:37:35.111Z,22.60
2023-03-06T05:40:06.690Z,23.00
2023-03-06T05:45:04.006Z,25.30
2023-03-06T05:47:32.265Z,27.20
2023-03-06T05:49:59.664Z,26.90
2023-03-06T05:52:27.179Z,21.40
2023-03-06T05:54:55.146Z,24.20
2023-03-06T05:57:24.369Z,25.00
2023-03-06T05:59:52.001Z,25.30
2023-03-06T06:02:19.850Z,23.20
2023-03-06T06:04:47.425Z,25.80
2023-03-06T06:07:16.563Z,27.00
2023-03-06T06:09:45.689Z,21.50
2023-03-06T06:12:13.830Z,22.70
2023-03-06T06:14:41.384Z,23.00
2023-03-06T06:17:09.056Z,23.60
2023-03-06T06:19:36.462Z,21.40
2023-03-06T06:22:04.428Z,22.00
2023-03-06T06:24:32.531Z,20.60
2023-03-06T06:27:03.666Z,19.40
2023-03-06T06:29:32.584Z,19.70
2023-03-06T06:32:01.223Z,20.00
2023-03-06T06:34:28.792Z,21.80
2023-03-06T06:36:56.395Z,20.90
2023-03-06T06:39:24.866Z,18.90
2023-03-06T06:42:09.653Z,20.60
2023-03-06T06:44:40.196Z,20.10
2023-03-06T06:47:25.381Z,23.80
2023-03-06T06:49:55.371Z,23.60
2023-03-06T06:52:24.799Z,23.50
2023-03-06T06:54:53.369Z,23.00
2023-03-06T06:57:23.777Z,23.10
2023-03-06T06:59:53.437Z,22.50
2023-03-06T07:02:21.600Z,23.80
2023-03-06T07:05:02.465Z,26.00
2023-03-06T07:07:37.975Z,22.60
2023-03-06T07:10:16.089Z,27.40
2023-03-06T07:12:44.069Z,23.40
2023-03-06T07:15:14.884Z,22.20
2023-03-06T07:17:42.491Z,24.90
2023-03-06T07:20:10.821Z,20.30
2023-03-06T07:22:50.329Z,19.20
2023-03-06T07:25:19.720Z,25.40
2023-03-06T07:27:53.235Z,21.50
2023-03-06T07:30:24.738Z,23.90
2023-03-06T07:32:54.625Z,24.40
2023-03-06T07:35:22.841Z,22.00
2023-03-06T07:37:51.553Z,21.10
2023-03-06T07:40:20.608Z,22.50
2023-03-06T07:42:48.218Z,22.70
2023-03-06T07:45:15.882Z,24.10
2023-03-06T07:47:43.258Z,23.90
2023-03-06T07:50:11.524Z,21.70
2023-03-06T07:52:39.019Z,22.70
2023-03-06T07:55:07.429Z,24.60
2023-03-06T07:57:34.913Z,21.30
2023-03-06T08:00:05.451Z,25.60
2023-03-06T08:02:32.774Z,19.70
2023-03-06T08:05:00.129Z,21.20
2023-03-06T08:07:30.297Z,19.90
2023-03-06T08:09:57.954Z,22.90
2023-03-06T08:12:25.324Z,21.50
2023-03-06T08:14:52.749Z,23.80
2023-03-06T08:17:20.158Z,21.90
2023-03-06T08:19:47.573Z,20.40
2023-03-06T08:22:15.118Z,20.30
2023-03-06T08:24:42.665Z,21.70
2023-03-06T08:27:10.049Z,19.20
2023-03-06T08:29:37.527Z,21.60
2023-03-06T08:32:05.388Z,20.10
2023-03-06T08:34:32.837Z,18.50
2023-03-06T08:37:00.207Z,20.30
2023-03-06T08:39:27.613Z,18.50
2023-03-06T08:41:55.011Z,29.40
2023-03-06T08:44:22.485Z,20.10
2023-03-06T08:46:50.325Z,19.40
2023-03-06T08:49:17.718Z,19.60
2023-03-06T08:51:45.084Z,22.60
2023-03-06T08:54:13.061Z,21.70
2023-03-06T08:56:40.684Z,19.90
2023-03-06T08:59:09.462Z,18.50
2023-03-06T09:01:38.006Z,19.00
2023-03-06T09:04:09.301Z,20.30
2023-03-06T09:06:41.743Z,20.90
2023-03-06T09:09:09.534Z,19.90
2023-03-06T09:11:37.262Z,20.80
2023-03-06T09:14:05.776Z,21.10
2023-03-06T09:16:33.456Z,19.30
2023-03-06T09:19:00.915Z,21.60
2023-03-06T09:21:28.649Z,19.60
2023-03-06T09:23:56.479Z,19.50
2023-03-06T09:26:32.831Z,21.70
2023-03-06T09:29:08.008Z,19.70
2023-03-06T09:31:35.569Z,21.00
2023-03-06T09:34:02.949Z,23.30
2023-03-06T09:36:30.449Z,21.20
2023-03-06T09:38:57.870Z,20.30
2023-03-06T09:41:40.915Z,20.00
2023-03-06T09:44:17.020Z,16.10
2023-03-06T09:47:35.600Z,23.90
2023-03-06T09:50:37.994Z,18.70
2023-03-06T09:53:41.175Z,18.60
2023-03-06T09:56:21.132Z,18.20
2023-03-06T09:58:57.478Z,17.80
2023-03-06T10:01:36.834Z,20.20
2023-03-06T10:04:34.762Z,18.30
2023-03-06T10:07:24.346Z,19.50
2023-03-06T10:10:00.495Z,20.00
2023-03-06T10:12:33.009Z,19.50
2023-03-06T10:15:14.629Z,20.00
2023-03-06T10:17:43.424Z,22.30
2023-03-06T10:20:21.648Z,19.30
2023-03-06T10:23:11.833Z,18.40
2023-03-06T10:26:01.760Z,18.10
2023-03-06T10:28:38.787Z,15.10
2023-03-06T10:31:15.980Z,15.90
2023-03-06T10:33:55.659Z,13.20
2023-03-06T10:36:27.288Z,15.00
2023-03-06T10:38:57.976Z,15.80
2023-03-06T10:41:32.395Z,17.00
2023-03-06T10:43:59.690Z,13.40
2023-03-06T10:46:43.040Z,13.30
2023-03-06T10:50:00.756Z,14.70
2023-03-06T10:52:34.508Z,13.40
2023-03-06T10:55:29.938Z,13.60
2023-03-06T10:57:57.590Z,13.80
2023-03-06T11:00:38.178Z,12.80
2023-03-06T11:03:22.708Z,11.90
2023-03-06T11:06:02.038Z,11.80
2023-03-06T11:08:30.830Z,12.70
2023-03-06T11:11:13.264Z,12.40
2023-03-06T11:13:43.926Z,12.50
2023-03-06T11:16:27.762Z,13.10
2023-03-06T11:19:06.937Z,11.70
2023-03-06T11:21:37.386Z,13.20
2023-03-06T11:24:18.563Z,13.40
2023-03-06T11:27:14.023Z,13.80
2023-03-06T11:29:47.428Z,13.60
2023-03-06T11:32:23.447Z,13.00
2023-03-06T11:34:58.138Z,14.20
2023-03-06T11:37:54.071Z,14.70
2023-03-06T11:40:32.112Z,12.10
2023-03-06T11:43:31.010Z,11.50
2023-03-06T11:46:07.437Z,12.50
2023-03-06T11:48:42.890Z,11.70
2023-03-06T11:51:28.063Z,13.30
2023-03-06T11:53:58.792Z,13.60
2023-03-06T11:56:48.090Z,12.50
2023-03-06T11:59:47.133Z,12.90
2023-03-06T12:02:44.038Z,12.20
2023-03-06T12:05:47.086Z,12.80
2023-03-06T12:08:34.236Z,14.60
2023-03-06T12:14:19.289Z,11.10
2023-03-06T12:17:05.722Z,10.80
2023-03-06T12:20:35.315Z,12.30
2023-03-06T12:23:15.443Z,12.00
2023-03-06T12:25:50.614Z,14.90
2023-03-06T12:28:39.460Z,11.20
2023-03-06T12:31:20.256Z,12.00
2023-03-06T12:34:09.456Z,10.20
2023-03-06T12:36:52.410Z,13.30
2023-03-06T12:39:44.051Z,11.00
2023-03-06T12:42:44.986Z,11.30
2023-03-06T12:45:31.940Z,12.00
2023-03-06T12:48:00.897Z,15.60
2023-03-06T12:50:33.532Z,14.20
2023-03-06T12:53:06.269Z,15.40
2023-03-06T12:55:46.756Z,14.50
2023-03-06T12:58:29.480Z,11.40
2023-03-06T13:01:27.713Z,16.10
2023-03-06T13:04:24.148Z,11.90
2023-03-06T13:07:22.964Z,15.00
2023-03-06T13:10:16.322Z,13.00
2023-03-06T13:13:01.645Z,9.90
2023-03-06T13:15:45.967Z,13.10
2023-03-06T13:18:22.619Z,12.60
2023-03-06T13:20:53.410Z,11.60
2023-03-06T13:23:30.104Z,13.20
2023-03-06T13:26:24.087Z,12.80
2023-03-06T13:28:54.124Z,12.80
2023-03-06T13:31:33.783Z,13.50
2023-03-06T13:34:32.926Z,14.00
2023-03-06T13:37:18.714Z,13.10
2023-03-06T13:39:55.030Z,12.10
2023-03-06T13:42:59.656Z,12.00
2023-03-06T13:45:43.919Z,11.50
2023-03-06T13:48:42.977Z,11.60
2023-03-06T13:51:33.839Z,14.00
2023-03-06T13:54:41.969Z,12.30
2023-03-06T13:57:27.146Z,13.40
2023-03-06T14:00:27.400Z,14.00
2023-03-06T14:03:17.597Z,16.30
2023-03-06T14:05:48.446Z,13.10
2023-03-06T14:08:22.718Z,12.40
2023-03-06T14:11:05.566Z,11.70
2023-03-06T14:13:47.590Z,11.10
2023-03-06T14:16:23.266Z,14.20
2023-03-06T14:18:59.064Z,12.50
2023-03-06T14:21:51.424Z,10.60
2023-03-06T14:24:21.142Z,11.50
2023-03-06T14:26:51.472Z,13.00
2023-03-06T14:29:27.596Z,13.00
2023-03-06T14:31:58.439Z,13.50
2023-03-06T14:34:33.506Z,13.60
2023-03-06T14:37:05.493Z,10.60
2023-03-06T14:39:44.280Z,12.80
2023-03-06T14:42:28.594Z,12.30
2023-03-06T14:45:23.806Z,12.10
2023-03-06T14:47:52.931Z,12.10
2023-03-06T14:50:33.214Z,11.70
2023-03-06T14:53:12.709Z,12.10
2023-03-06T14:56:06.265Z,11.00
2023-03-06T14:58:57.385Z,10.40
2023-03-06T15:01:41.205Z,10.60
2023-03-06T15:04:35.094Z,10.70
2023-03-06T15:07:27.071Z,9.80
2023-03-06T15:09:55.198Z,9.90
2023-03-06T15:12:33.821Z,8.80
2023-03-06T15:15:32.553Z,9.30
2023-03-06T15:18:00.429Z,8.30
2023-03-06T15:20:49.048Z,9.20
2023-03-06T15:23:34.852Z,10.40
2023-03-06T15:26:20.919Z,8.80
2023-03-06T15:29:23.114Z,9.80
2023-03-06T15:31:50.634Z,11.40
2023-03-06T15:34:24.659Z,11.60
2023-03-06T15:36:57.589Z,10.30
2023-03-06T15:39:35.309Z,10.50
2023-03-06T15:42:25.622Z,10.10
2023-03-06T15:45:03.267Z,10.00
2023-03-06T15:47:30.684Z,10.60
2023-03-06T15:49:58.099Z,9.90
2023-03-06T15:52:25.521Z,11.30
2023-03-06T15:54:53.077Z,10.50
2023-03-06T15:57:23.413Z,9.50
2023-03-06T15:59:51.728Z,9.70
2023-03-06T16:02:23.599Z,9.80
2023-03-06T16:04:52.365Z,10.90
2023-03-06T16:07:20.642Z,9.90
2023-03-06T16:09:48.431Z,9.70
2023-03-06T16:12:19.190Z,9.00
2023-03-06T16:14:48.115Z,8.60
2023-03-06T16:17:16.610Z,10.10
2023-03-06T16:19:44.185Z,9.90
2023-03-06T16:22:11.896Z,8.70
2023-03-06T16:24:39.407Z,11.20
2023-03-06T16:27:07.062Z,8.60
2023-03-06T16:29:35.180Z,8.40
2023-03-06T16:32:03.203Z,10.30
2023-03-06T16:34:30.611Z,11.30
2023-03-06T16:36:57.966Z,10.10
2023-03-06T16:39:25.462Z,9.10
2023-03-06T16:41:53.238Z,9.10
2023-03-06T16:44:20.948Z,10.30
2023-03-06T16:46:50.244Z,10.10
2023-03-06T16:49:20.016Z,11.90
2023-03-06T16:51:48.065Z,9.70
2023-03-06T16:54:15.917Z,10.70
2023-03-06T16:56:44.323Z,9.70
2023-03-06T16:59:12.474Z,12.30
2023-03-06T17:01:44.904Z,10.60
2023-03-06T17:04:12.647Z,10.10
2023-03-06T17:06:41.790Z,9.70
2023-03-06T17:09:10.965Z,9.70
2023-03-06T17:11:38.815Z,11.10
2023-03-06T17:14:06.979Z,9.10
2023-03-06T17:16:36.518Z,9.50
2023-03-06T17:19:03.975Z,8.40
2023-03-06T17:21:31.726Z,11.00
2023-03-06T17:24:01.736Z,7.80
2023-03-06T17:26:29.381Z,8.00
2023-03-06T17:28:56.776Z,8.80
2023-03-06T17:31:27.106Z,10.40
2023-03-06T17:34:00.199Z,10.40
2023-03-06T17:36:31.366Z,7.60
2023-03-06T17:39:01.849Z,8.40
2023-03-06T17:41:29.945Z,10.80
2023-03-06T17:43:58.456Z,8.80
2023-03-06T17:46:26.158Z,8.70
2023-03-06T17:48:55.413Z,7.90
2023-03-06T17:51:23.226Z,7.30
2023-03-06T17:53:52.222Z,8.70
2023-03-06T17:56:19.787Z,8.20
2023-03-06T17:58:47.644Z,7.70
2023-03-06T18:01:22.144Z,7.30
2023-03-06T18:03:51.515Z,6.40
2023-03-06T18:06:20.700Z,8.10
2023-03-06T18:08:51.032Z,8.40
2023-03-06T18:11:20.450Z,7.30
2023-03-06T18:13:48.741Z,8.30
2023-03-06T18:16:20.657Z,7.70
2023-03-06T18:18:50.856Z,6.80
2023-03-06T18:21:18.287Z,6.10
2023-03-06T18:23:45.742Z,8.40
2023-03-06T18:26:23.499Z,6.40
2023-03-06T18:29:06.530Z,8.30
2023-03-06T18:31:38.006Z,9.10
2023-03-06T18:34:15.065Z,7.30
2023-03-06T18:36:43.622Z,6.10
2023-03-06T18:39:13.666Z,6.40
2023-03-06T18:41:41.466Z,10.10
2023-03-06T18:44:08.917Z,8.60
2023-03-06T18:46:38.198Z,7.50
2023-03-06T18:49:06.384Z,7.40
2023-03-06T18:51:34.696Z,5.70
2023-03-06T18:54:04.205Z,8.10
2023-03-06T18:56:32.551Z,13.50
2023-03-06T18:59:05.749Z,6.30
2023-03-06T19:01:34.654Z,9.10
2023-03-06T19:04:03.657Z,8.60
2023-03-06T19:06:31.440Z,8.90
2023-03-06T19:08:58.934Z,7.20
2023-03-06T19:11:27.102Z,6.70
2023-03-06T19:13:54.959Z,8.20
2023-03-06T19:16:25.822Z,7.30
2023-03-06T19:18:55.601Z,6.80
2023-03-06T19:21:26.244Z,6.70
2023-03-06T19:23:54.777Z,7.70
2023-03-06T19:26:23.155Z,6.90
2023-03-06T19:28:51.412Z,7.70
2023-03-06T19:31:25.101Z,9.10
2023-03-06T19:33:54.827Z,8.00
2023-03-06T19:36:26.748Z,7.10
2023-03-06T19:38:59.889Z,8.70
2023-03-06T19:41:28.446Z,10.40
2023-03-06T19:44:00.284Z,8.20
2023-03-06T19:46:28.193Z,7.60
2023-03-06T19:48:58.437Z,8.40
2023-03-06T19:51:27.292Z,7.10
2023-03-06T19:53:56.671Z,7.10
2023-03-06T19:56:27.563Z,9.10
2023-03-06T19:58:55.189Z,8.70
2023-03-06T20:01:26.174Z,7.70
2023-03-06T20:03:59.235Z,8.80
2023-03-06T20:06:31.531Z,8.50
2023-03-06T20:09:02.058Z,7.50
2023-03-06T20:11:32.651Z,9.50
2023-03-06T20:14:02.697Z,9.50
2023-03-06T20:16:31.335Z,9.70
2023-03-06T20:19:00.510Z,9.10
2023-03-06T20:21:31.119Z,8.60
2023-03-06T20:23:59.297Z,9.80
2023-03-06T20:26:29.228Z,9.10
2023-03-06T20:28:57.599Z,12.30
2023-03-06T20:31:28.524Z,9.30
2023-03-06T20:33:58.918Z,10.80
2023-03-06T20:36:40.492Z,13.00
2023-03-06T20:41:38.541Z,11.80
2023-03-06T20:44:09.006Z,11.50
2023-03-06T20:46:36.500Z,11.40
2023-03-06T20:49:04.950Z,11.80
2023-03-06T20:51:37.590Z,9.70
2023-03-06T20:54:08.126Z,11.60
2023-03-06T20:56:39.506Z,10.80
2023-03-06T21:01:41.178Z,12.70
2023-03-06T21:04:12.827Z,11.60
2023-03-06T21:06:43.605Z,12.90
2023-03-06T21:09:11.375Z,11.80
2023-03-06T21:11:38.810Z,12.40
2023-03-06T21:14:06.279Z,11.80
2023-03-06T21:16:34.026Z,12.90
2023-03-06T21:19:01.537Z,12.50
2023-03-06T21:21:32.926Z,13.70
2023-03-06T21:26:33.569Z,13.20
2023-03-06T21:29:02.101Z,14.90
2023-03-06T21:31:30.794Z,12.00
2023-03-06T21:33:58.970Z,12.10
2023-03-06T21:36:27.486Z,10.20
2023-03-06T21:38:55.506Z,13.10
2023-03-06T21:41:26.974Z,10.20
2023-03-06T21:46:28.158Z,13.00
2023-03-06T21:48:56.390Z,12.60
2023-03-06T21:51:26.073Z,11.70
2023-03-06T21:53:54.841Z,12.60
2023-03-06T21:56:25.397Z,12.10
2023-03-06T21:58:53.367Z,11.30
2023-03-06T22:01:24.986Z,11.50
2023-03-06T22:03:53.373Z,12.30
2023-03-06T22:06:25.459Z,11.40
2023-03-06T22:08:55.802Z,15.00
2023-03-06T22:11:25.278Z,11.60
2023-03-06T22:13:55.820Z,14.40
2023-03-06T22:16:23.933Z,13.80
2023-03-06T22:18:52.364Z,13.10
2023-03-06T22:21:21.973Z,12.60
2023-03-06T22:23:51.715Z,13.60
2023-03-06T22:26:19.923Z,13.60
2023-03-06T22:28:47.592Z,14.90
2023-03-06T22:31:15.944Z,11.60
2023-03-06T22:33:43.822Z,15.40
2023-03-06T22:36:15.196Z,13.50
2023-03-06T22:38:45.372Z,12.90
2023-03-06T22:41:17.467Z,16.70
2023-03-06T22:43:44.909Z,14.20
2023-03-06T22:46:16.852Z,13.40
2023-03-06T22:48:44.933Z,13.10
2023-03-06T22:51:19.094Z,11.70
2023-03-06T22:53:48.093Z,12.60
2023-03-06T22:56:19.550Z,12.30
2023-03-06T23:01:23.464Z,13.50
2023-03-06T23:03:54.452Z,15.80
2023-03-06T23:06:25.015Z,13.50
2023-03-06T23:09:02.652Z,13.30
2023-03-06T23:11:30.520Z,13.60
2023-03-06T23:13:58.512Z,13.50
2023-03-06T23:16:26.599Z,14.20
2023-03-06T23:18:54.239Z,13.30
2023-03-06T23:21:22.837Z,13.50
2023-03-06T23:23:53.007Z,12.00
2023-03-06T23:26:24.061Z,13.50
2023-03-06T23:28:52.942Z,14.60
2023-03-06T23:31:25.223Z,12.00
2023-03-06T23:33:52.577Z,14.10
2023-03-06T23:36:19.949Z,15.70
2023-03-06T23:38:47.391Z,15.80
2023-03-06T23:41:18.319Z,20.40
2023-03-06T23:43:47.385Z,14.40
2023-03-06T23:46:15.620Z,15.10
2023-03-06T23:48:44.702Z,12.50
2023-03-06T23:51:21.333Z,13.20
2023-03-06T23:53:55.841Z,15.90
2023-03-06T23:56:25.094Z,15.30
2023-03-06T23:58:53.428Z,16.40
